Hendersonville, NC

2:58 AM EST on February 11, 2016 (GMT -0500)
big wllow | | Change Station
CLOSE
Current Station
Personal Weather Station
Location: Hendersonville, NC
Elevation: 2343 ft
Nearby Weather Stations

Elev 2343 ft 35.28 °N, 82.53 °W | Updated 29 seconds ago

Clear
Clear
17.3 °F
Feels Like 17 °F
N
0.0
Wind Variable Wind from SE
Gusts 0.0 mph

Today
High -- | Low -- °F
--% Chance of Precip.
Yesterday
High -- | Low -- °F
Precip. -- in
Pressure 30.09 in
Visibility 10.0 miles
Clouds Overcast 3500 ft
Windchill 17 °F
Dew Point 8 °F
Humidity 64%
Rainfall 0.00 in
Snow Depth Not available.
7:21 AM 6:08 PM
Waxing Crescent, 10% visible
METAR KAVL 110754Z AUTO 35007KT 10SM OVC035 M07/M14 A3003 RMK AO2 SLP187 T10671139
Pressure 30.09 in
Visibility 10.0 miles
Clouds Overcast 3500 ft
Windchill 17 °F
Dew Point 8 °F
Humidity 64%
Rainfall 0.00 in
Snow Depth Not available.
7:21 AM 6:08 PM
Waxing Crescent, 10% visible
METAR KAVL 110754Z AUTO 35007KT 10SM OVC035 M07/M14 A3003 RMK AO2 SLP187 T10671139

10-Day Weather Forecast

Almanac

Astronomy

Feb. 11, 2016 Rise Set
Actual Time
Civil Twilight
Nautical Twilight
Astronomical Twilight
Moon
Length of Visible Light
Length of Day
Tomorrow will be .
, % of the Moon is Illuminated

Today's Extremes

State Highs State Lows

Community

WunderPhotos

Upload Photos

1,892,030 photos uploaded!

WunderBlog® & News

Nearby

Air Quality

  Air Quality AQ Index Pollutant
Not available.

Snow Depth

Station Depth Elevation

Earthquake Activity

City Distance Mag. Time & Date
Minimum magnitude displayed is 2.5.

Coastal Water Temperatures

Place Temperature

Stations

Nearby Weather Stations

Station Location Temp. Windchill Dew Point Humidity Wind Precip. Elev Updated Type
                   

Watches & Warnings

There are currently no watches in effect.